Time;durP1;ratioP1;P1;durP2;ratioP2;P2;SDS_P1;SDS_P2;PMS_P1;PMS_P2;Temp;Humidity;BMP_temperature;BMP_pressure;BME280_temperature;BME280_humidity;BME280_pressure;Samples;Min_cycle;Max_cycle;Signal;HPM_P1;HPM_P2
2023/06/28 00:12:57;;;;;;;20.45;18.65;;;20.30;99.90;;;;;;6220463;22;20102;-92
2023/06/28 00:15:24;;;;;;;19.92;18.10;;;20.20;99.90;;;;;;6218767;23;20433;-91
2023/06/28 00:17:54;;;;;;;20.55;18.88;;;20.20;99.90;;;;;;6222357;23;20455;-92
2023/06/28 00:20:21;;;;;;;20.17;18.25;;;20.30;99.90;;;;;;6222896;23;20008;-92
2023/06/28 00:22:49;;;;;;;18.95;17.35;;;20.30;99.90;;;;;;6217725;23;20005;-93
2023/06/28 00:25:16;;;;;;;19.10;17.52;;;20.20;99.90;;;;;;6193222;23;20450;-91
2023/06/28 00:27:43;;;;;;;19.40;17.85;;;20.20;99.90;;;;;;6193779;23;20011;-91
2023/06/28 00:30:09;;;;;;;20.52;18.42;;;20.10;99.90;;;;;;6191765;23;20020;-91
2023/06/28 00:32:36;;;;;;;20.00;18.17;;;20.10;99.90;;;;;;6191878;23;20015;-93
2023/06/28 00:35:04;;;;;;;19.35;17.52;;;20.10;99.90;;;;;;6216763;23;20009;-91
2023/06/28 00:37:31;;;;;;;20.00;18.10;;;20.00;99.90;;;;;;6191819;23;20000;-92
2023/06/28 00:39:57;;;;;;;19.65;17.73;;;20.10;99.90;;;;;;6191893;23;20012;-91
2023/06/28 00:42:24;;;;;;;20.85;18.63;;;20.00;99.90;;;;;;6191559;23;20088;-92
2023/06/28 00:44:51;;;;;;;19.27;17.58;;;20.00;99.90;;;;;;6200326;22;20000;-92
2023/06/28 00:47:18;;;;;;;18.30;16.73;;;20.00;99.90;;;;;;6214900;23;20013;-92
2023/06/28 00:49:46;;;;;;;19.00;17.45;;;20.00;99.90;;;;;;6197825;23;20016;-90
2023/06/28 00:52:13;;;;;;;18.83;17.13;;;19.90;99.90;;;;;;6191982;23;20004;-93
2023/06/28 00:54:42;;;;;;;19.13;17.15;;;19.90;99.90;;;;;;6241640;23;20012;-92
2023/06/28 00:57:09;;;;;;;18.42;16.75;;;19.90;99.90;;;;;;6191113;23;20026;-93
2023/06/28 00:59:36;;;;;;;18.95;16.92;;;19.90;99.90;;;;;;6191510;23;20020;-92
2023/06/28 01:02:03;;;;;;;17.63;16.23;;;19.90;99.90;;;;;;6209347;23;20008;-92
2023/06/28 01:04:29;;;;;;;18.35;16.27;;;19.80;99.90;;;;;;6241691;22;20060;-90
2023/06/28 01:06:59;;;;;;;17.85;16.30;;;19.80;99.90;;;;;;6195045;23;20020;-92
2023/06/28 01:09:29;;;;;;;19.95;17.63;;;19.70;99.90;;;;;;6196288;23;20024;-92
2023/06/28 01:12:04;;;;;;;18.90;16.92;;;19.70;99.90;;;;;;6226700;23;20000;-94
2023/06/28 01:14:32;;;;;;;17.52;16.08;;;19.70;99.90;;;;;;6221617;23;20024;-93
2023/06/28 01:16:59;;;;;;;18.02;15.95;;;19.70;99.90;;;;;;6211578;23;20004;-91
2023/06/28 01:19:31;;;;;;;16.70;15.23;;;19.60;99.90;;;;;;6221393;23;20087;-91
2023/06/28 01:22:06;;;;;;;17.30;15.77;;;19.60;99.90;;;;;;6221581;23;20079;-92
2023/06/28 01:24:33;;;;;;;17.40;15.87;;;19.70;99.90;;;;;;6221169;23;20381;-93
2023/06/28 01:27:01;;;;;;;18.98;16.23;;;19.70;99.90;;;;;;6221285;23;20413;-91
2023/06/28 01:29:29;;;;;;;16.92;15.45;;;19.70;99.90;;;;;;6221306;23;20016;-93
2023/06/28 01:31:56;;;;;;;17.02;15.32;;;19.70;99.90;;;;;;6221248;23;20051;-91
2023/06/28 01:34:29;;;;;;;18.13;16.33;;;19.70;99.90;;;;;;6221194;23;20012;-91
2023/06/28 01:36:59;;;;;;;17.27;15.50;;;19.60;99.90;;;;;;6221263;23;20016;-91
2023/06/28 01:39:28;;;;;;;17.15;15.65;;;19.60;99.90;;;;;;6221102;23;20094;-92
2023/06/28 01:41:56;;;;;;;16.65;15.02;;;19.60;99.90;;;;;;6221153;23;20004;-92
2023/06/28 01:44:23;;;;;;;16.40;14.80;;;19.50;99.90;;;;;;6196084;23;20437;-93
2023/06/28 01:46:52;;;;;;;17.90;16.02;;;19.50;99.90;;;;;;6220867;23;20005;-91
2023/06/28 01:49:21;;;;;;;16.25;14.95;;;19.40;99.90;;;;;;6221127;23;20018;-92
2023/06/28 01:51:47;;;;;;;16.02;14.60;;;19.40;99.90;;;;;;6221090;23;20087;-90
2023/06/28 01:54:15;;;;;;;16.60;15.10;;;19.40;99.90;;;;;;6220986;23;20004;-92
2023/06/28 01:56:45;;;;;;;16.15;14.27;;;19.40;99.90;;;;;;6220856;23;20004;-92
2023/06/28 01:59:15;;;;;;;16.45;14.80;;;19.40;99.90;;;;;;6195880;23;20015;-92
2023/06/28 02:01:44;;;;;;;16.00;14.60;;;19.50;99.90;;;;;;6221055;23;20011;-91
2023/06/28 02:04:11;;;;;;;16.10;14.65;;;19.60;99.90;;;;;;6220800;23;20501;-92
2023/06/28 02:06:43;;;;;;;15.50;13.82;;;19.60;99.90;;;;;;6221064;23;20326;-91
2023/06/28 02:09:10;;;;;;;15.93;14.43;;;19.50;99.90;;;;;;6221156;23;20016;-92
2023/06/28 02:11:37;;;;;;;16.92;15.05;;;19.40;99.90;;;;;;6220944;23;20028;-91
2023/06/28 02:14:03;;;;;;;17.02;15.38;;;19.40;99.90;;;;;;6220701;23;20016;-93
2023/06/28 02:16:31;;;;;;;15.95;14.52;;;19.30;99.90;;;;;;6195852;23;20079;-93
2023/06/28 02:19:02;;;;;;;16.42;14.70;;;19.30;99.90;;;;;;6221153;23;20011;-92
2023/06/28 02:21:29;;;;;;;16.80;14.77;;;19.30;99.90;;;;;;6220641;23;20004;-92
2023/06/28 02:23:55;;;;;;;15.00;13.60;;;19.30;99.90;;;;;;6195491;23;20004;-91
2023/06/28 02:26:25;;;;;;;29.15;14.35;;;19.30;99.90;;;;;;6221023;23;20446;-91
2023/06/28 02:28:52;;;;;;;16.27;14.65;;;19.30;99.90;;;;;;6220694;23;20020;-94
2023/06/28 02:31:18;;;;;;;16.27;14.55;;;19.20;99.90;;;;;;6220833;23;20058;-94
2023/06/28 02:33:46;;;;;;;15.98;14.38;;;19.20;99.90;;;;;;6221040;23;20008;-93
2023/06/28 02:36:13;;;;;;;17.42;14.50;;;19.10;99.90;;;;;;6220877;23;20004;-92
2023/06/28 02:38:42;;;;;;;15.35;13.95;;;19.10;99.90;;;;;;6220717;23;20013;-93
2023/06/28 02:41:10;;;;;;;15.90;14.20;;;19.20;99.90;;;;;;6247350;22;20008;-93
2023/06/28 02:43:37;;;;;;;15.48;14.07;;;19.10;99.90;;;;;;6237528;23;20011;-91
2023/06/28 02:46:04;;;;;;;15.23;13.82;;;19.10;99.90;;;;;;6220811;22;20433;-91
2023/06/28 02:48:34;;;;;;;15.98;14.48;;;19.20;99.90;;;;;;6220584;23;20023;-91
2023/06/28 02:51:01;;;;;;;16.45;14.73;;;19.20;99.90;;;;;;6221998;23;20004;-91
2023/06/28 02:53:27;;;;;;;16.20;14.35;;;19.20;99.90;;;;;;6222672;23;20012;-92
2023/06/28 02:55:54;;;;;;;16.40;14.32;;;19.10;99.90;;;;;;6222592;23;20001;-90
2023/06/28 02:58:35;;;;;;;15.75;14.13;;;19.10;99.90;;;;;;6225764;23;20008;-92
2023/06/28 03:01:01;;;;;;;17.75;14.02;;;19.10;99.90;;;;;;6222647;23;20008;-91
2023/06/28 03:03:33;;;;;;;20.10;13.80;;;19.10;99.90;;;;;;6197526;23;20004;-94
2023/06/28 03:06:00;;;;;;;15.93;14.32;;;19.10;99.90;;;;;;6222761;23;20019;-90
2023/06/28 03:08:27;;;;;;;14.88;13.18;;;19.20;99.90;;;;;;6222586;23;20015;-91
2023/06/28 03:10:54;;;;;;;16.05;14.15;;;19.20;99.90;;;;;;6222728;23;20012;-93
2023/06/28 03:13:20;;;;;;;15.40;13.80;;;19.20;99.90;;;;;;6217178;23;20072;-90
2023/06/28 03:15:47;;;;;;;15.02;13.52;;;19.10;99.90;;;;;;6217270;23;20012;-93
2023/06/28 03:18:18;;;;;;;16.02;13.65;;;19.00;99.90;;;;;;6208345;23;20005;-92
2023/06/28 03:20:50;;;;;;;14.68;13.32;;;19.00;99.90;;;;;;6192918;23;20009;-93
2023/06/28 03:27:48;;;;;;;17.05;13.82;;;19.00;99.90;;;;;;6095537;23;20094;-95
2023/06/28 03:30:44;;;;;;;16.48;13.15;;;19.20;99.90;;;;;;6116181;23;20021;-93
2023/06/28 03:33:27;;;;;;;13.73;12.40;;;19.20;99.90;;;;;;6103971;23;20014;-92
2023/06/28 03:36:15;;;;;;;21.00;13.07;;;19.20;99.90;;;;;;6041349;23;20086;-93
2023/06/28 03:39:04;;;;;;;15.07;13.48;;;19.20;99.90;;;;;;6125832;23;20503;-93
2023/06/28 03:41:34;;;;;;;14.57;13.07;;;19.20;99.90;;;;;;6103049;23;20018;-92
2023/06/28 03:44:07;;;;;;;14.80;13.18;;;19.20;99.90;;;;;;6102833;23;20010;-92
2023/06/28 03:50:10;;;;;;;15.02;13.60;;;19.30;99.90;;;;;;6102719;23;20014;-93
2023/06/28 03:52:43;;;;;;;15.18;13.70;;;19.30;99.90;;;;;;6102445;23;20085;-92
2023/06/28 03:55:29;;;;;;;17.75;13.88;;;19.40;99.90;;;;;;6103076;23;20035;-94
2023/06/28 03:57:59;;;;;;;15.55;13.95;;;19.50;99.90;;;;;;6103375;23;20009;-91
2023/06/28 04:00:26;;;;;;;16.63;14.10;;;19.50;99.90;;;;;;6102762;23;20101;-93
2023/06/28 04:02:52;;;;;;;19.65;14.60;;;19.70;99.90;;;;;;6130805;23;20019;-92
2023/06/28 04:05:19;;;;;;;14.90;13.23;;;19.70;99.90;;;;;;6192070;23;20031;-92
2023/06/28 04:07:54;;;;;;;15.38;13.98;;;19.80;99.90;;;;;;6191892;23;20005;-91
2023/06/28 04:10:21;;;;;;;14.48;13.02;;;19.80;99.90;;;;;;6192041;23;20024;-91
2023/06/28 04:12:48;;;;;;;15.35;13.75;;;20.00;99.90;;;;;;6191825;23;20013;-92
2023/06/28 04:15:15;;;;;;;15.23;13.55;;;20.10;99.90;;;;;;6192183;23;20016;-91
2023/06/28 04:17:41;;;;;;;19.52;15.38;;;20.20;99.90;;;;;;6192422;23;20055;-91
2023/06/28 04:20:11;;;;;;;17.17;15.32;;;20.30;99.90;;;;;;6192754;23;20007;-93
2023/06/28 04:22:38;;;;;;;15.88;14.13;;;20.50;99.90;;;;;;6191942;23;20012;-91
2023/06/28 04:25:08;;;;;;;16.20;14.70;;;20.60;99.90;;;;;;6192425;23;20005;-93
2023/06/28 04:27:35;;;;;;;15.52;14.10;;;20.90;99.90;;;;;;6192181;23;20393;-93
2023/06/28 04:30:01;;;;;;;16.77;15.15;;;21.00;99.90;;;;;;6192300;23;20012;-93
2023/06/28 04:32:31;;;;;;;18.55;15.38;;;21.30;99.90;;;;;;6193003;23;20040;-92
2023/06/28 04:35:01;;;;;;;16.80;15.25;;;21.40;99.90;;;;;;6209004;23;20027;-93
2023/06/28 04:37:31;;;;;;;18.38;16.63;;;21.70;99.90;;;;;;6210255;23;20019;-92
2023/06/28 04:40:07;;;;;;;18.13;16.25;;;22.20;99.90;;;;;;6194843;23;20438;-93
2023/06/28 04:42:34;;;;;;;18.92;17.17;;;22.80;99.90;;;;;;6192255;23;20009;-94
2023/06/28 04:45:01;;;;;;;20.80;18.70;;;23.30;99.90;;;;;;6191796;23;20004;-94
2023/06/28 04:47:28;;;;;;;23.13;18.05;;;23.80;99.90;;;;;;6192063;23;20008;-92
2023/06/28 04:49:58;;;;;;;18.60;17.08;;;24.50;99.90;;;;;;6191990;23;20017;-92
2023/06/28 04:52:31;;;;;;;19.33;17.75;;;25.50;99.90;;;;;;6192056;23;20013;-93
2023/06/28 04:55:00;;;;;;;23.08;20.67;;;26.70;99.90;;;;;;6191898;23;20004;-94
2023/06/28 04:57:31;;;;;;;23.17;21.33;;;27.60;99.90;;;;;;6192038;23;20004;-93
2023/06/28 05:00:10;;;;;;;24.63;22.65;;;28.30;99.90;;;;;;6191821;23;20020;-94
2023/06/28 05:02:51;;;;;;;25.27;23.23;;;28.90;99.90;;;;;;6191322;23;20009;-93
2023/06/28 05:05:24;;;;;;;26.70;24.40;;;29.50;99.90;;;;;;6192046;23;20009;-95
2023/06/28 05:08:03;;;;;;;25.42;23.42;;;29.70;99.90;;;;;;6188762;23;20431;-95
2023/06/28 05:10:36;;;;;;;25.83;23.63;;;30.30;99.90;;;;;;6191935;23;20044;-96
2023/06/28 05:13:26;;;;;;;26.90;24.77;;;30.70;99.90;;;;;;6199522;23;20020;-92
2023/06/28 05:15:54;;;;;;;27.38;24.85;;;30.90;99.90;;;;;;6198958;23;20013;-94
2023/06/28 05:18:24;;;;;;;28.23;25.73;;;30.90;99.90;;;;;;6222134;23;20011;-93
2023/06/28 05:21:00;;;;;;;27.80;25.27;;;31.10;99.90;;;;;;6220396;23;20087;-94
2023/06/28 05:23:30;;;;;;;28.90;26.30;;;31.40;99.90;;;;;;6222522;23;20008;-94
2023/06/28 05:26:01;;;;;;;26.48;24.33;;;31.60;99.90;;;;;;6220524;23;20008;-95
2023/06/28 05:28:31;;;;;;;25.73;23.92;;;32.00;99.90;;;;;;6216358;23;20021;-93
2023/06/28 05:31:07;;;;;;;27.25;24.63;;;32.20;99.90;;;;;;6197135;23;20024;-93
2023/06/28 05:33:40;;;;;;;26.17;24.13;;;32.50;99.90;;;;;;6223226;23;20018;-95
2023/06/28 05:36:18;;;;;;;26.23;24.25;;;32.50;99.90;;;;;;6217230;23;20350;-92
2023/06/28 05:38:58;;;;;;;;;;;;;;;;;;;;;
2023/06/28 05:41:31;;;;;;;26.02;24.13;;;33.50;99.90;;;;;;6246932;23;20329;-93
2023/06/28 05:44:01;;;;;;;26.55;24.55;;;33.40;99.90;;;;;;6221288;23;20079;-93
2023/06/28 05:46:37;;;;;;;25.98;24.27;;;33.60;99.90;;;;;;6216780;23;20280;-94
2023/06/28 05:49:21;;;;;;;26.27;24.10;;;33.90;99.90;;;;;;6203566;23;20021;-95
2023/06/28 05:51:59;;;;;;;25.43;23.80;;;33.80;99.90;;;;;;6222300;23;20008;-94
2023/06/28 05:54:31;;;;;;;25.90;24.02;;;34.10;99.90;;;;;;6216149;23;20582;-93
2023/06/28 05:57:01;;;;;;;26.37;24.37;;;34.30;99.90;;;;;;6216903;23;20008;-93
2023/06/28 05:59:30;;;;;;;25.90;24.00;;;34.20;99.90;;;;;;6209425;23;20095;-95
2023/06/28 06:01:57;;;;;;;25.85;24.05;;;34.30;99.90;;;;;;6219762;23;20028;-94
2023/06/28 06:04:26;;;;;;;26.63;24.50;;;34.30;99.90;;;;;;6221515;23;20050;-94
2023/06/28 06:06:53;;;;;;;26.13;24.13;;;34.20;99.90;;;;;;6220237;23;20012;-94
2023/06/28 06:09:21;;;;;;;26.08;24.05;;;34.20;99.90;;;;;;6216481;23;20013;-93
2023/06/28 06:11:50;;;;;;;25.38;23.73;;;34.10;99.90;;;;;;6219945;22;20333;-94
2023/06/28 06:14:17;;;;;;;26.63;24.08;;;34.10;99.90;;;;;;6215956;23;20017;-93
2023/06/28 06:16:50;;;;;;;25.90;23.90;;;34.10;99.90;;;;;;6217626;23;20059;-94
2023/06/28 06:19:19;;;;;;;26.40;24.60;;;34.20;99.90;;;;;;6221331;23;20012;-94
2023/06/28 06:21:56;;;;;;;26.98;25.08;;;34.50;99.90;;;;;;6221004;23;20015;-94
2023/06/28 06:24:23;;;;;;;26.40;24.65;;;34.80;99.90;;;;;;6221771;23;20004;-94
2023/06/28 06:26:53;;;;;;;25.95;24.17;;;34.90;99.90;;;;;;6221413;23;20008;-93
2023/06/28 06:29:25;;;;;;;26.45;24.65;;;35.00;99.90;;;;;;6233180;22;20004;-93
2023/06/28 06:31:54;;;;;;;26.83;24.73;;;35.70;99.90;;;;;;6265486;22;20068;-94
2023/06/28 06:34:21;;;;;;;26.85;24.75;;;35.30;99.90;;;;;;6227016;23;20032;-95
2023/06/28 06:36:47;;;;;;;26.85;24.85;;;35.30;99.90;;;;;;6222164;23;20005;-94
2023/06/28 06:39:14;;;;;;;27.17;25.20;;;35.30;99.90;;;;;;6221021;23;20004;-92
2023/06/28 06:41:44;;;;;;;26.33;24.52;;;35.60;99.90;;;;;;6220851;23;20015;-93
2023/06/28 06:44:11;;;;;;;26.02;24.13;;;35.50;99.90;;;;;;6221619;23;20011;-94
2023/06/28 06:46:55;;;;;;;27.10;24.80;;;35.40;99.90;;;;;;6222200;23;20083;-94
2023/06/28 06:49:22;;;;;;;26.20;24.50;;;35.00;99.90;;;;;;6221416;23;20442;-93
2023/06/28 06:51:48;;;;;;;26.02;24.23;;;35.00;99.90;;;;;;6222197;23;20057;-93
2023/06/28 06:54:17;;;;;;;25.50;23.52;;;34.80;99.90;;;;;;6220902;23;20008;-92
2023/06/28 06:56:44;;;;;;;25.60;23.88;;;34.50;99.90;;;;;;6220312;23;20007;-95
2023/06/28 06:59:10;;;;;;;26.48;24.35;;;34.70;99.90;;;;;;6220499;23;20008;-94
2023/06/28 07:01:37;;;;;;;25.73;24.02;;;35.30;99.90;;;;;;6196071;23;20083;-93
2023/06/28 07:04:03;;;;;;;25.08;23.38;;;35.10;99.90;;;;;;6220516;23;20046;-91
2023/06/28 07:06:30;;;;;;;25.83;24.02;;;34.70;99.90;;;;;;6246009;23;20084;-93
2023/06/28 07:08:57;;;;;;;26.15;24.17;;;34.70;99.90;;;;;;6220036;23;20020;-93
2023/06/28 07:11:25;;;;;;;25.67;23.90;;;35.20;99.90;;;;;;6220297;23;20338;-93
2023/06/28 08:51:27;;;;;;;25.48;23.77;;;37.70;99.90;;;;;;6235421;22;20077;-92
2023/06/28 08:53:55;;;;;;;25.58;24.08;;;37.40;99.90;;;;;;6199974;23;20011;-94
2023/06/28 08:56:22;;;;;;;25.95;24.30;;;37.40;99.90;;;;;;6200277;23;20057;-91
2023/06/28 08:58:51;;;;;;;25.85;24.15;;;37.10;99.90;;;;;;6199564;23;20035;-94
2023/06/28 09:01:22;;;;;;;25.98;24.23;;;37.30;99.90;;;;;;6191790;23;20035;-92
2023/06/28 09:03:49;;;;;;;25.30;23.55;;;37.70;99.90;;;;;;6192186;23;20013;-92
2023/06/28 09:06:16;;;;;;;25.23;23.55;;;37.70;99.90;;;;;;6191853;23;20024;-92
2023/06/28 09:08:46;;;;;;;26.08;24.23;;;37.40;99.90;;;;;;6191606;23;20017;-92
2023/06/28 09:11:16;;;;;;;25.65;23.90;;;37.50;99.90;;;;;;6216892;23;20066;-93
2023/06/28 09:13:43;;;;;;;25.02;23.52;;;37.70;99.90;;;;;;6191707;23;20384;-91
2023/06/28 09:16:10;;;;;;;24.98;23.38;;;37.70;99.90;;;;;;6192605;23;20096;-93
2023/06/28 09:18:37;;;;;;;25.92;24.00;;;37.40;99.90;;;;;;6192128;23;20071;-94
2023/06/28 09:21:04;;;;;;;24.95;23.45;;;37.70;99.90;;;;;;6191432;23;20088;-93
2023/06/28 09:23:41;;;;;;;25.63;23.83;;;37.50;99.90;;;;;;6191861;23;20013;-93
2023/06/28 09:26:10;;;;;;;25.15;23.67;;;37.60;99.90;;;;;;6107453;23;20013;-93
2023/06/28 09:28:37;;;;;;;26.05;24.20;;;37.70;99.90;;;;;;6131619;23;20017;-94
2023/06/28 09:31:07;;;;;;;25.50;23.80;;;37.80;99.10;;;;;;6132178;23;20037;-93
2023/06/28 09:33:33;;;;;;;25.50;24.00;;;37.70;99.00;;;;;;6131381;23;20002;-91
2023/06/28 09:36:02;;;;;;;25.85;24.25;;;37.30;98.80;;;;;;6131907;23;20010;-95
2023/06/28 09:38:29;;;;;;;26.23;24.30;;;36.90;98.60;;;;;;6131822;23;20001;-93
2023/06/28 09:41:02;;;;;;;25.92;24.23;;;36.80;99.60;;;;;;6132317;23;20017;-93
2023/06/28 09:43:32;;;;;;;26.13;24.42;;;36.50;99.20;;;;;;6132935;23;20009;-96
2023/06/28 09:46:16;;;;;;;25.45;23.58;;;36.30;99.80;;;;;;6132135;23;20533;-92
2023/06/28 09:48:48;;;;;;;26.10;24.17;;;36.30;99.80;;;;;;6131867;23;20135;-93
2023/06/28 09:51:18;;;;;;;25.83;24.20;;;36.10;99.60;;;;;;6131823;23;20023;-94
2023/06/28 09:53:53;;;;;;;25.83;24.13;;;35.90;99.70;;;;;;6131851;23;20080;-94
2023/06/28 09:56:22;;;;;;;25.83;24.13;;;36.20;99.90;;;;;;6145934;23;20060;-92
2023/06/28 09:58:49;;;;;;;26.27;24.20;;;36.40;99.60;;;;;;6191665;23;20001;-92
2023/06/28 10:01:16;;;;;;;26.05;24.20;;;36.10;99.30;;;;;;6191811;23;20032;-92
2023/06/28 10:03:46;;;;;;;25.98;23.85;;;35.90;99.20;;;;;;6192372;23;20008;-92
2023/06/28 10:06:15;;;;;;;25.92;24.23;;;35.90;99.70;;;;;;6217559;22;20028;-92
2023/06/28 10:08:43;;;;;;;25.92;24.20;;;35.70;99.90;;;;;;6196013;23;20039;-92
2023/06/28 10:11:14;;;;;;;25.75;24.05;;;35.60;99.90;;;;;;6190996;23;20012;-90
2023/06/28 10:13:48;;;;;;;26.95;24.98;;;35.80;99.90;;;;;;6190828;23;20100;-92
2023/06/28 10:16:19;;;;;;;26.42;24.75;;;35.50;99.70;;;;;;6191174;23;20012;-91
2023/06/28 10:18:45;;;;;;;26.67;24.67;;;35.50;99.10;;;;;;6190729;23;20008;-91
2023/06/28 10:21:12;;;;;;;25.88;24.15;;;35.60;99.90;;;;;;6190952;23;20015;-91
2023/06/28 10:23:40;;;;;;;26.20;23.92;;;35.80;99.90;;;;;;6191625;23;20009;-91
2023/06/28 10:26:08;;;;;;;25.92;23.83;;;35.60;99.30;;;;;;6216144;23;20005;-92
2023/06/28 10:28:35;;;;;;;25.73;23.92;;;35.70;99.50;;;;;;6191781;23;20040;-92
2023/06/28 10:31:05;;;;;;;26.48;24.58;;;35.60;99.60;;;;;;6191827;23;20035;-92
2023/06/28 10:33:32;;;;;;;25.63;23.80;;;35.50;99.90;;;;;;6191808;23;20024;-93
2023/06/28 10:36:03;;;;;;;25.98;24.17;;;35.50;99.90;;;;;;6193057;23;20004;-94
2023/06/28 10:38:43;;;;;;;25.85;24.00;;;35.50;99.90;;;;;;6191258;23;20012;-92
2023/06/28 10:41:16;;;;;;;24.60;23.00;;;35.70;99.90;;;;;;6191048;23;20004;-93
2023/06/28 10:43:43;;;;;;;;;;;35.60;99.80;;;;;;6191112;23;20019;-93
2023/06/28 10:46:43;;;;;;;25.10;23.48;;;35.60;99.60;;;;;;6190701;23;19924;-93
2023/06/28 10:49:16;;;;;;;26.08;24.17;;;35.50;98.70;;;;;;6067776;23;20098;-93
2023/06/28 10:51:47;;;;;;;25.40;23.55;;;35.10;98.50;;;;;;6030598;23;20022;-92
2023/06/28 10:54:14;;;;;;;25.67;23.55;;;35.20;99.60;;;;;;6072180;23;20010;-93
2023/06/28 10:56:52;;;;;;;25.75;23.75;;;35.10;99.90;;;;;;6048310;23;20496;-94
2023/06/28 10:59:18;;;;;;;25.42;23.88;;;35.40;99.40;;;;;;6048466;23;20447;-93
2023/06/28 11:01:55;;;;;;;26.27;24.30;;;35.30;99.90;;;;;;6048479;23;20014;-93
2023/06/28 11:04:24;;;;;;;26.08;24.27;;;35.40;99.90;;;;;;6048546;23;20018;-92
2023/06/28 11:07:13;;;;;;;25.23;23.58;;;35.60;99.70;;;;;;6048146;23;20492;-92
2023/06/28 11:09:40;;;;;;;25.63;23.67;;;35.80;99.10;;;;;;6048437;23;20106;-92
2023/06/28 11:12:13;;;;;;;25.60;23.90;;;35.80;98.80;;;;;;6049244;23;20006;-93
2023/06/28 11:17:32;;;;;;;25.00;23.27;;;35.60;98.70;;;;;;6219410;23;19981;-95
2023/06/28 11:20:11;;;;;;;25.63;23.90;;;35.40;98.50;;;;;;6170303;23;20440;-93
2023/06/28 11:22:56;;;;;;;25.45;23.85;;;35.10;98.30;;;;;;6167913;23;20525;-94
2023/06/28 11:25:31;;;;;;;27.05;24.80;;;35.20;99.20;;;;;;6192910;23;20013;-96
2023/06/28 11:27:58;;;;;;;26.73;24.73;;;34.90;99.20;;;;;;6192314;23;20040;-93
2023/06/28 11:30:51;;;;;;;25.63;24.02;;;35.10;99.10;;;;;;6167310;23;20023;-92
2023/06/28 11:33:18;;;;;;;25.58;23.75;;;35.30;99.30;;;;;;6168381;23;20030;-95
2023/06/28 11:35:46;;;;;;;26.70;24.52;;;35.60;98.30;;;;;;6192361;23;20028;-93
2023/06/28 11:38:16;;;;;;;26.65;24.70;;;35.60;98.20;;;;;;6171726;22;19988;-94
2023/06/28 11:40:43;;;;;;;26.08;24.45;;;35.70;98.10;;;;;;6199778;23;20007;-94
2023/06/28 11:43:10;;;;;;;27.00;25.20;;;35.80;98.50;;;;;;6192577;23;20005;-92
2023/06/28 11:48:24;;;;;;;26.75;24.80;;;35.60;97.50;;;;;;6251405;22;20024;-94
2023/06/28 11:51:11;;;;;;;27.05;25.15;;;35.60;97.60;;;;;;6203253;23;20381;-93
2023/06/28 11:56:50;;;;;;;26.15;24.08;;;35.50;97.00;;;;;;6224078;22;20444;-93
2023/06/28 11:59:21;;;;;;;25.73;24.13;;;35.40;97.90;;;;;;6198182;23;20008;-92
2023/06/28 12:02:00;;;;;;;27.00;24.50;;;35.30;98.40;;;;;;6198207;22;20401;-91
2023/06/28 12:04:26;;;;;;;25.88;24.30;;;35.30;98.30;;;;;;6224201;23;20005;-91
2023/06/28 12:06:53;;;;;;;26.48;24.67;;;35.30;98.60;;;;;;6223148;22;20003;-93
2023/06/28 12:09:22;;;;;;;25.85;24.15;;;35.10;98.30;;;;;;6244051;22;20012;-92
2023/06/28 12:12:03;;;;;;;26.40;24.80;;;35.10;98.20;;;;;;6202063;22;20004;-95
2023/06/28 12:21:37;;;;;;;;;;;;;;;;;;;;;
2023/06/28 12:24:21;;;;;;;27.00;24.38;;;35.10;98.90;;;;;;6166654;23;20084;-94
2023/06/28 12:26:54;;;;;;;25.15;23.52;;;35.00;98.10;;;;;;6182607;23;20033;-93
2023/06/28 12:29:25;;;;;;;25.48;23.77;;;35.10;98.30;;;;;;6182134;23;20459;-93
2023/06/28 12:31:54;;;;;;;25.80;24.00;;;35.10;98.00;;;;;;6182301;23;20010;-94
2023/06/28 12:34:37;;;;;;;25.10;23.27;;;34.90;98.70;;;;;;6187587;23;20032;-92
2023/06/28 12:37:07;;;;;;;25.58;23.88;;;34.90;98.90;;;;;;6197037;22;20016;-93
2023/06/28 12:39:41;;;;;;;25.60;23.70;;;35.10;98.00;;;;;;6197498;23;20378;-92
2023/06/28 12:42:17;;;;;;;25.45;23.55;;;35.10;98.60;;;;;;6191380;23;20039;-94
2023/06/28 12:44:54;;;;;;;25.67;23.92;;;35.10;98.50;;;;;;6192065;23;20005;-92
2023/06/28 12:47:22;;;;;;;25.25;23.65;;;35.00;98.90;;;;;;6191800;23;20315;-92
2023/06/28 12:49:48;;;;;;;24.77;23.27;;;35.10;99.10;;;;;;6216545;23;20023;-94
2023/06/28 12:52:19;;;;;;;25.88;24.17;;;35.00;98.20;;;;;;6191393;23;20011;-91
2023/06/28 13:19:57;;;;;;;25.50;23.73;;;34.60;99.90;;;;;;6226396;22;20021;-93
2023/06/28 13:41:50;;;;;;;25.52;23.83;;;33.80;99.90;;;;;;6217097;22;20078;-92
2023/06/28 14:49:09;;;;;;;24.67;22.90;;;32.50;99.90;;;;;;6249881;22;20095;-92
2023/06/28 14:51:51;;;;;;;25.35;23.45;;;32.70;99.50;;;;;;6226542;23;20083;-91
2023/06/28 14:54:21;;;;;;;24.98;23.48;;;32.40;99.30;;;;;;6192989;23;20088;-93
2023/06/28 16:44:00;;;;;;;22.67;20.90;;;30.50;99.90;;;;;;6227690;22;20821;31
2023/06/28 17:12:06;;;;;;;;;;;;;;;;;;;;;
2023/06/28 17:15:09;;;;;;;20.50;19.15;;;29.50;99.90;;;;;;6247596;22;20031;-94
2023/06/28 17:24:23;;;;;;;19.63;18.33;;;29.40;99.90;;;;;;6239073;22;20023;-94
2023/06/28 17:27:20;;;;;;;20.88;18.98;;;29.30;99.90;;;;;;6218987;23;20446;-95
2023/06/28 17:32:15;;;;;;;19.48;18.00;;;29.10;99.90;;;;;;6250089;22;20024;-93
2023/06/28 17:34:41;;;;;;;19.38;17.95;;;28.90;99.90;;;;;;6194215;22;20008;-91
2023/06/28 17:37:08;;;;;;;19.60;17.98;;;28.90;99.90;;;;;;6200791;23;20072;-93
2023/06/28 17:39:37;;;;;;;19.42;18.13;;;28.80;99.90;;;;;;6198896;23;20068;-92
2023/06/28 17:42:04;;;;;;;19.02;17.70;;;28.70;99.90;;;;;;6199390;23;20008;-93
2023/06/28 17:47:42;;;;;;;17.98;16.65;;;28.50;99.90;;;;;;6164657;23;20032;-93
2023/06/28 17:50:39;;;;;;;19.25;17.48;;;28.50;99.90;;;;;;6191043;23;20110;-93
2023/06/28 17:53:17;;;;;;;18.27;16.98;;;28.40;99.90;;;;;;6186083;23;20008;-92
2023/06/28 17:55:53;;;;;;;18.50;17.17;;;28.30;99.90;;;;;;6192892;23;20091;-93
2023/06/28 17:58:25;;;;;;;17.92;16.70;;;28.20;99.90;;;;;;6193976;23;20032;-93
2023/06/28 18:00:52;;;;;;;17.92;16.80;;;28.20;99.90;;;;;;6191466;23;20035;-92
2023/06/28 18:03:18;;;;;;;19.20;17.52;;;28.10;99.90;;;;;;6193053;23;20013;-93
2023/06/28 18:05:44;;;;;;;19.05;17.75;;;28.00;99.90;;;;;;6193726;23;20012;-92
2023/06/28 18:08:11;;;;;;;20.23;18.55;;;28.00;99.90;;;;;;6192325;23;20011;-92
2023/06/28 18:10:40;;;;;;;19.65;18.13;;;28.00;99.90;;;;;;6192039;23;20042;-93
2023/06/28 18:13:06;;;;;;;20.50;18.77;;;27.80;99.90;;;;;;6211134;22;19992;-92
2023/06/28 18:40:45;;;;;;;20.35;18.95;;;27.00;99.90;;;;;;6249506;23;20501;-91
2023/06/28 18:46:35;;;;;;;20.33;18.92;;;26.90;99.90;;;;;;6122924;23;20022;-94
2023/06/28 18:49:24;;;;;;;21.10;19.25;;;26.80;99.90;;;;;;6126804;23;20144;-92
2023/06/28 18:52:02;;;;;;;20.88;19.20;;;26.70;99.90;;;;;;6101246;23;20157;-93
2023/06/28 18:54:29;;;;;;;19.98;18.45;;;26.60;99.90;;;;;;6125991;23;20010;-93
2023/06/28 18:57:06;;;;;;;20.00;18.55;;;26.50;99.90;;;;;;6126428;23;20033;-95
2023/06/28 18:59:43;;;;;;;19.48;17.90;;;26.50;99.90;;;;;;6125745;23;20006;-93
2023/06/28 19:02:36;;;;;;;;;;;;;;;;;;;;;
2023/06/28 19:05:36;;;;;;;19.08;17.83;;;26.40;99.90;;;;;;6041508;23;20020;-94
2023/06/28 19:08:11;;;;;;;20.38;18.60;;;26.40;99.90;;;;;;6063119;23;20011;-92
2023/06/28 19:10:37;;;;;;;20.42;18.65;;;26.40;99.90;;;;;;6087526;22;20019;-84
2023/06/28 19:13:05;;;;;;;20.63;18.92;;;26.40;99.90;;;;;;6219213;23;20008;-83
